createdAt,value
2019-02-19T00:01:59.522Z,9.30
2019-02-19T00:04:29.555Z,9.30
2019-02-19T00:06:59.601Z,9.20
2019-02-19T00:09:29.600Z,9.20
2019-02-19T00:11:59.809Z,9.10
2019-02-19T00:14:30.046Z,9.00
2019-02-19T00:17:00.134Z,9.00
2019-02-19T00:19:32.833Z,8.90
2019-02-19T00:22:02.940Z,8.90
2019-02-19T00:24:32.948Z,8.90
2019-02-19T00:27:03.037Z,8.80
2019-02-19T00:29:33.119Z,8.80
2019-02-19T00:32:03.284Z,8.70
2019-02-19T00:37:25.645Z,8.70
2019-02-19T00:40:09.403Z,8.60
2019-02-19T00:42:51.743Z,8.60
2019-02-19T00:45:33.426Z,8.60
2019-02-19T00:48:15.293Z,8.60
2019-02-19T00:50:57.284Z,8.60
2019-02-19T00:53:27.318Z,8.60
2019-02-19T00:55:57.328Z,8.60
2019-02-19T00:58:27.375Z,8.60
2019-02-19T01:00:57.418Z,8.50
2019-02-19T01:03:27.570Z,8.50
2019-02-19T01:05:58.247Z,8.50
2019-02-19T01:08:28.293Z,8.50
2019-02-19T01:10:58.349Z,8.50
2019-02-19T01:13:28.402Z,8.50
2019-02-19T01:15:58.435Z,8.50
2019-02-19T01:18:28.474Z,8.50
2019-02-19T01:20:58.482Z,8.50
2019-02-19T01:23:28.607Z,8.50
2019-02-19T01:25:58.761Z,8.50
2019-02-19T01:28:28.814Z,8.50
2019-02-19T01:30:58.832Z,8.40
2019-02-19T01:33:28.995Z,8.50
2019-02-19T01:35:59.285Z,8.50
2019-02-19T01:38:29.518Z,8.60
2019-02-19T01:40:59.649Z,8.60
2019-02-19T01:43:29.773Z,8.60
2019-02-19T01:46:02.897Z,8.60
2019-02-19T01:48:32.938Z,8.60
2019-02-19T01:51:03.051Z,8.60
2019-02-19T01:53:33.069Z,8.60
2019-02-19T01:56:03.165Z,8.50
2019-02-19T01:58:33.198Z,8.50
2019-02-19T02:01:03.278Z,8.40
2019-02-19T02:03:33.335Z,8.40
2019-02-19T02:06:03.674Z,8.50
2019-02-19T02:08:33.789Z,8.50
2019-02-19T02:11:03.978Z,8.50
2019-02-19T02:13:34.155Z,8.50
2019-02-19T02:16:04.304Z,8.50
2019-02-19T02:18:34.536Z,8.40
2019-02-19T02:21:04.551Z,8.40
2019-02-19T02:23:34.585Z,8.40
2019-02-19T02:26:04.669Z,8.30
2019-02-19T02:28:34.717Z,8.40
2019-02-19T02:31:04.712Z,8.40
2019-02-19T02:33:34.731Z,8.40
2019-02-19T02:36:04.925Z,8.40
2019-02-19T02:38:35.161Z,8.30
2019-02-19T02:41:05.827Z,8.30
2019-02-19T02:43:35.872Z,8.30
2019-02-19T02:46:05.892Z,8.20
2019-02-19T02:48:35.933Z,8.20
2019-02-19T02:51:06.128Z,8.30
2019-02-19T02:53:36.271Z,8.30
2019-02-19T02:56:06.702Z,8.30
2019-02-19T02:58:36.741Z,8.30
2019-02-19T03:01:06.895Z,8.30
2019-02-19T03:03:37.124Z,8.20
2019-02-19T03:06:25.165Z,8.20
2019-02-19T03:08:55.254Z,8.20
2019-02-19T03:11:25.253Z,8.20
2019-02-19T03:13:55.416Z,8.20
2019-02-19T03:16:25.851Z,8.20
2019-02-19T03:18:55.962Z,8.10
2019-02-19T03:21:26.051Z,8.10
2019-02-19T03:23:56.681Z,8.10
2019-02-19T03:26:27.625Z,8.00
2019-02-19T03:28:57.741Z,8.00
2019-02-19T03:31:27.837Z,8.00
2019-02-19T03:33:58.163Z,7.90
2019-02-19T03:36:28.264Z,8.00
2019-02-19T03:38:58.495Z,8.00
2019-02-19T03:41:28.578Z,7.90
2019-02-19T03:44:00.704Z,7.90
2019-02-19T03:46:30.773Z,7.90
2019-02-19T03:49:00.821Z,7.90
2019-02-19T03:51:30.822Z,7.90
2019-02-19T03:54:00.853Z,7.80
2019-02-19T03:56:30.937Z,7.90
2019-02-19T03:59:01.093Z,7.90
2019-02-19T04:01:31.160Z,7.90
2019-02-19T04:04:02.005Z,7.90
2019-02-19T04:06:32.488Z,7.90
2019-02-19T04:09:04.095Z,7.90
2019-02-19T04:11:39.552Z,7.90
2019-02-19T04:14:10.990Z,7.80
2019-02-19T04:16:41.129Z,7.90
2019-02-19T04:19:11.553Z,7.90
2019-02-19T04:21:41.621Z,7.90
2019-02-19T04:24:12.280Z,7.80
2019-02-19T04:26:42.387Z,7.80
2019-02-19T04:29:12.525Z,7.90
2019-02-19T04:31:42.607Z,7.90
2019-02-19T04:34:12.661Z,7.90
2019-02-19T04:36:42.820Z,7.90
2019-02-19T04:39:12.966Z,7.90
2019-02-19T04:41:42.942Z,7.90
2019-02-19T04:44:12.972Z,7.90
2019-02-19T04:46:43.337Z,8.00
2019-02-19T04:49:13.352Z,8.00
2019-02-19T04:51:43.443Z,8.00
2019-02-19T04:54:13.543Z,8.10
2019-02-19T04:56:46.846Z,8.00
2019-02-19T04:59:17.482Z,8.00
2019-02-19T05:01:47.648Z,8.00
2019-02-19T05:04:17.756Z,8.00
2019-02-19T05:06:47.770Z,8.00
2019-02-19T05:09:20.405Z,8.00
2019-02-19T05:11:51.934Z,8.00
2019-02-19T05:14:22.047Z,7.90
2019-02-19T05:16:52.062Z,7.90
2019-02-19T05:19:22.114Z,7.90
2019-02-19T05:21:54.188Z,8.00
2019-02-19T05:24:24.295Z,7.90
2019-02-19T05:26:54.780Z,8.00
2019-02-19T05:29:27.915Z,8.00
2019-02-19T05:31:58.087Z,8.00
2019-02-19T05:34:28.157Z,8.00
2019-02-19T05:36:58.228Z,8.00
2019-02-19T05:39:28.383Z,8.00
2019-02-19T05:41:58.429Z,8.00
2019-02-19T05:44:28.584Z,8.00
2019-02-19T05:46:58.582Z,8.00
2019-02-19T05:49:28.619Z,8.00
2019-02-19T05:52:02.499Z,8.00
2019-02-19T05:54:32.616Z,8.00
2019-02-19T05:57:02.782Z,7.90
2019-02-19T05:59:34.236Z,7.90
2019-02-19T06:02:04.313Z,7.80
2019-02-19T06:04:34.384Z,7.60
2019-02-19T06:07:04.621Z,7.50
2019-02-19T06:09:34.782Z,7.30
2019-02-19T06:12:07.261Z,7.20
2019-02-19T06:14:37.429Z,7.10
2019-02-19T06:17:07.447Z,7.00
2019-02-19T06:19:37.484Z,6.80
2019-02-19T06:22:08.011Z,6.80
2019-02-19T06:24:38.176Z,6.70
2019-02-19T06:27:09.318Z,6.60
2019-02-19T06:29:39.441Z,6.50
2019-02-19T06:32:12.625Z,6.40
2019-02-19T06:34:42.759Z,6.30
2019-02-19T06:37:12.940Z,6.20
2019-02-19T06:39:42.992Z,6.20
2019-02-19T06:42:13.190Z,6.20
2019-02-19T06:44:43.685Z,6.20
2019-02-19T06:47:13.785Z,6.10
2019-02-19T06:49:43.953Z,6.10
2019-02-19T06:52:14.042Z,6.10
2019-02-19T06:54:44.289Z,6.00
2019-02-19T06:57:14.412Z,6.00
2019-02-19T06:59:45.992Z,6.00
2019-02-19T07:02:33.922Z,6.00
2019-02-19T07:05:06.976Z,6.00
2019-02-19T07:07:37.042Z,6.00
2019-02-19T07:10:07.177Z,6.00
2019-02-19T07:12:37.284Z,6.00
2019-02-19T07:15:07.396Z,5.90
2019-02-19T07:17:39.276Z,5.90
2019-02-19T07:20:09.385Z,5.90
2019-02-19T07:22:42.415Z,6.00
2019-02-19T07:25:12.458Z,6.00
2019-02-19T07:27:42.570Z,6.00
2019-02-19T07:30:12.758Z,6.10
2019-02-19T07:32:44.512Z,6.10
2019-02-19T07:35:14.612Z,6.10
2019-02-19T07:37:44.860Z,6.10
2019-02-19T07:40:15.044Z,6.10
2019-02-19T07:42:45.267Z,6.20
2019-02-19T07:45:15.481Z,6.20
2019-02-19T07:47:45.823Z,6.30
2019-02-19T07:50:15.952Z,6.30
2019-02-19T07:52:46.201Z,6.30
2019-02-19T07:55:16.250Z,6.40
2019-02-19T07:57:47.550Z,6.50
2019-02-19T08:00:17.643Z,6.50
2019-02-19T08:02:47.786Z,6.60
2019-02-19T08:05:18.291Z,6.60
2019-02-19T08:07:48.489Z,6.70
2019-02-19T08:10:18.495Z,6.70
2019-02-19T08:12:48.897Z,6.80
2019-02-19T08:15:18.901Z,6.90
2019-02-19T08:17:49.027Z,6.90
2019-02-19T08:20:19.136Z,6.90
2019-02-19T08:22:49.177Z,7.00
2019-02-19T08:25:19.204Z,7.10
2019-02-19T08:27:50.773Z,7.10
2019-02-19T08:30:20.973Z,7.20
2019-02-19T08:32:50.978Z,7.30
2019-02-19T08:35:21.008Z,7.30
2019-02-19T08:37:52.631Z,7.40
2019-02-19T08:40:22.818Z,7.40
2019-02-19T08:42:56.269Z,7.50
2019-02-19T08:45:26.260Z,7.60
2019-02-19T08:47:57.946Z,7.60
2019-02-19T08:50:28.047Z,7.70
2019-02-19T08:52:58.086Z,7.70
2019-02-19T08:55:31.216Z,7.80
2019-02-19T08:58:01.269Z,7.90
2019-02-19T09:00:31.289Z,7.90
2019-02-19T09:03:01.453Z,8.00
2019-02-19T09:05:32.167Z,8.10
2019-02-19T09:08:02.221Z,8.10
2019-02-19T09:10:32.288Z,8.20
2019-02-19T09:13:02.540Z,8.20
2019-02-19T09:15:32.753Z,8.30
2019-02-19T09:18:04.393Z,8.40
2019-02-19T09:20:34.373Z,8.50
2019-02-19T09:23:04.498Z,8.60
2019-02-19T09:25:34.574Z,8.60
2019-02-19T09:28:04.702Z,8.70
2019-02-19T09:30:34.708Z,8.70
2019-02-19T09:33:04.844Z,8.80
2019-02-19T09:35:34.942Z,8.90
2019-02-19T09:38:07.782Z,8.90
2019-02-19T09:40:37.796Z,9.00
2019-02-19T09:43:07.849Z,9.10
2019-02-19T09:45:37.863Z,9.10
2019-02-19T09:48:07.914Z,9.20
2019-02-19T09:50:38.039Z,9.20
2019-02-19T09:53:08.077Z,9.30
2019-02-19T09:55:38.116Z,9.40
2019-02-19T09:58:08.169Z,9.40
2019-02-19T10:00:38.234Z,9.50
2019-02-19T10:03:08.375Z,9.40
2019-02-19T10:05:38.371Z,9.40
2019-02-19T10:08:09.842Z,9.50
2019-02-19T10:10:39.845Z,9.50
2019-02-19T10:13:09.935Z,9.70
2019-02-19T10:15:40.064Z,9.80
2019-02-19T10:18:11.084Z,9.90
2019-02-19T10:20:41.450Z,9.90
2019-02-19T10:23:11.731Z,9.90
2019-02-19T10:25:44.645Z,10.20
2019-02-19T10:28:15.546Z,10.40
2019-02-19T10:30:45.588Z,10.50
2019-02-19T10:33:16.448Z,10.40
2019-02-19T10:35:46.568Z,10.20
2019-02-19T10:38:16.714Z,10.30
2019-02-19T10:40:46.932Z,10.50
2019-02-19T10:43:17.133Z,10.70
2019-02-19T10:45:47.335Z,10.80
2019-02-19T10:48:19.320Z,10.80
2019-02-19T10:50:49.134Z,10.80
2019-02-19T10:53:19.176Z,10.60
2019-02-19T10:55:50.968Z,10.60
2019-02-19T10:58:23.199Z,10.70
2019-02-19T11:00:53.079Z,10.60
2019-02-19T11:03:23.128Z,10.60
2019-02-19T11:05:53.251Z,10.50
2019-02-19T11:08:23.288Z,10.60
2019-02-19T11:10:53.386Z,10.70
2019-02-19T11:13:23.505Z,10.70
2019-02-19T11:15:53.627Z,10.80
2019-02-19T11:18:28.425Z,10.80
2019-02-19T11:20:55.410Z,11.00
2019-02-19T11:23:25.454Z,11.40
2019-02-19T11:25:56.624Z,11.70
2019-02-19T11:28:26.699Z,12.10
2019-02-19T11:30:56.805Z,12.50
2019-02-19T11:33:29.579Z,12.60
2019-02-19T11:35:59.553Z,12.80
2019-02-19T11:38:29.587Z,12.80
2019-02-19T11:40:59.621Z,12.70
2019-02-19T11:43:29.772Z,12.60
2019-02-19T11:45:59.930Z,12.60
2019-02-19T11:48:36.780Z,12.50
2019-02-19T11:51:01.869Z,12.50
2019-02-19T11:53:31.932Z,12.40
2019-02-19T11:56:02.023Z,12.40
2019-02-19T11:58:32.278Z,12.60
2019-02-19T12:01:03.074Z,12.70
2019-02-19T12:03:33.248Z,12.40
2019-02-19T12:06:03.800Z,12.40
2019-02-19T12:08:39.094Z,12.30
2019-02-19T12:11:05.764Z,12.30
2019-02-19T12:13:36.191Z,12.50
2019-02-19T12:16:06.226Z,12.60
2019-02-19T12:18:36.396Z,12.80
2019-02-19T12:21:06.691Z,12.90
2019-02-19T12:23:36.811Z,13.00
2019-02-19T12:26:08.912Z,13.30
2019-02-19T12:28:38.940Z,13.30
2019-02-19T12:31:08.946Z,13.10
2019-02-19T12:33:40.715Z,12.90
2019-02-19T12:36:10.707Z,12.80
2019-02-19T12:38:40.988Z,12.90
2019-02-19T12:41:11.131Z,13.00
2019-02-19T12:43:41.544Z,12.90
2019-02-19T12:46:11.584Z,12.90
2019-02-19T12:48:41.733Z,13.00
2019-02-19T12:51:11.943Z,13.00
2019-02-19T12:53:42.252Z,13.10
2019-02-19T12:56:12.380Z,13.20
2019-02-19T12:58:42.528Z,13.30
2019-02-19T13:01:12.784Z,13.40
2019-02-19T13:03:42.964Z,13.30
2019-02-19T13:06:13.177Z,13.00
2019-02-19T13:08:43.506Z,12.50
2019-02-19T13:11:13.965Z,12.10
2019-02-19T13:13:44.062Z,11.70
2019-02-19T13:16:16.895Z,11.40
2019-02-19T13:18:47.003Z,11.20
2019-02-19T13:21:17.230Z,11.00
2019-02-19T13:23:48.406Z,10.90
2019-02-19T13:26:18.559Z,10.90
2019-02-19T13:28:48.620Z,10.90
2019-02-19T13:31:18.705Z,10.90
2019-02-19T13:33:48.926Z,10.80
2019-02-19T13:36:18.945Z,10.70
2019-02-19T13:38:49.010Z,10.70
2019-02-19T13:41:19.032Z,10.70
2019-02-19T13:43:49.116Z,10.90
2019-02-19T13:46:19.202Z,11.10
2019-02-19T13:48:49.227Z,11.30
2019-02-19T13:51:19.261Z,11.50
2019-02-19T13:53:56.583Z,11.70
2019-02-19T13:56:26.997Z,12.00
2019-02-19T13:58:57.040Z,12.10
2019-02-19T14:01:27.183Z,11.90
2019-02-19T14:03:57.419Z,11.90
2019-02-19T14:06:30.723Z,11.80
2019-02-19T14:09:00.849Z,11.70
2019-02-19T14:11:31.098Z,11.60
2019-02-19T14:14:33.705Z,11.50
2019-02-19T14:17:07.145Z,11.50
2019-02-19T14:19:43.740Z,11.50
2019-02-19T14:22:35.649Z,11.60
2019-02-19T14:25:34.882Z,11.80
2019-02-19T14:28:33.031Z,11.90
2019-02-19T14:31:25.394Z,12.00
2019-02-19T14:34:23.297Z,12.10
2019-02-19T14:37:12.782Z,12.20
2019-02-19T14:40:20.527Z,12.10
2019-02-19T14:43:08.509Z,12.10
2019-02-19T14:46:06.619Z,12.30
2019-02-19T14:49:04.674Z,12.40
2019-02-19T14:51:53.701Z,12.50
2019-02-19T14:54:48.854Z,12.60
2019-02-19T14:57:28.567Z,12.80
2019-02-19T15:00:18.015Z,12.90
2019-02-19T15:03:16.274Z,12.80
2019-02-19T15:06:08.513Z,12.80
2019-02-19T15:08:55.137Z,12.70
2019-02-19T15:11:39.450Z,12.60
2019-02-19T15:14:35.789Z,12.40
2019-02-19T15:17:20.183Z,12.30
2019-02-19T15:20:10.547Z,12.10
2019-02-19T15:23:05.995Z,11.80
2019-02-19T15:25:54.026Z,11.70
2019-02-19T15:28:58.156Z,11.50
2019-02-19T15:31:36.707Z,11.20
2019-02-19T15:34:25.640Z,11.00
2019-02-19T15:37:16.763Z,10.90
2019-02-19T15:40:05.894Z,10.70
2019-02-19T15:43:07.373Z,10.70
2019-02-19T15:46:02.404Z,10.60
2019-02-19T15:48:50.723Z,10.60
2019-02-19T15:51:38.527Z,10.60
2019-02-19T15:54:26.298Z,10.60
2019-02-19T15:57:21.218Z,10.60
2019-02-19T16:00:11.136Z,10.50
2019-02-19T16:02:46.820Z,10.50
2019-02-19T16:05:40.170Z,10.50
2019-02-19T16:08:47.430Z,10.60
2019-02-19T16:11:27.860Z,10.50
2019-02-19T16:14:16.858Z,10.50
2019-02-19T16:17:05.026Z,10.40
2019-02-19T16:19:45.722Z,10.30
2019-02-19T16:22:34.807Z,10.20
2019-02-19T16:25:34.508Z,10.20
2019-02-19T16:28:20.204Z,10.20
2019-02-19T16:31:08.223Z,10.20
2019-02-19T16:33:50.870Z,10.10
2019-02-19T16:36:40.111Z,10.10
2019-02-19T16:39:28.378Z,10.10
2019-02-19T16:42:35.863Z,10.10
2019-02-19T16:45:45.282Z,10.10
2019-02-19T16:48:25.493Z,10.10
2019-02-19T16:51:17.514Z,10.00
2019-02-19T16:54:20.323Z,9.90
2019-02-19T16:57:10.284Z,9.90
2019-02-19T17:00:02.254Z,9.80
2019-02-19T17:02:50.294Z,9.80
2019-02-19T17:05:38.070Z,9.70
2019-02-19T17:08:26.151Z,9.70
2019-02-19T17:11:15.276Z,9.60
2019-02-19T17:14:03.256Z,9.50
2019-02-19T17:16:51.366Z,9.40
2019-02-19T17:19:36.266Z,9.30
2019-02-19T17:22:13.853Z,9.20
2019-02-19T17:24:58.161Z,9.20
2019-02-19T17:27:50.175Z,9.20
2019-02-19T17:30:39.285Z,9.10
2019-02-19T17:33:43.809Z,9.00
2019-02-19T17:36:35.953Z,9.00
2019-02-19T17:39:28.896Z,8.90
2019-02-19T17:42:20.757Z,8.90
2019-02-19T17:45:22.252Z,8.90
2019-02-19T17:48:10.057Z,8.90
2019-02-19T17:51:05.467Z,8.80
2019-02-19T17:53:53.990Z,8.80
2019-02-19T17:56:33.951Z,8.80
2019-02-19T17:59:26.045Z,8.70
2019-02-19T18:02:15.597Z,8.80
2019-02-19T18:05:07.591Z,8.70
2019-02-19T18:08:00.843Z,8.70
2019-02-19T18:10:38.983Z,8.70
2019-02-19T18:13:29.565Z,8.70
2019-02-19T18:16:21.823Z,8.70
2019-02-19T18:18:52.037Z,8.70
2019-02-19T18:21:24.647Z,8.60
2019-02-19T18:23:56.733Z,8.60
2019-02-19T18:26:26.980Z,8.60
2019-02-19T18:28:57.831Z,8.60
2019-02-19T18:31:27.999Z,8.60
2019-02-19T18:33:58.094Z,8.60
2019-02-19T18:36:28.176Z,8.50
2019-02-19T18:39:00.566Z,8.50
2019-02-19T18:41:30.692Z,8.40
2019-02-19T18:44:00.845Z,8.40
2019-02-19T18:46:30.907Z,8.30
2019-02-19T18:49:00.998Z,8.30
2019-02-19T18:51:31.202Z,8.30
2019-02-19T18:54:01.209Z,8.30
2019-02-19T18:56:34.741Z,8.20
2019-02-19T18:59:04.859Z,8.20
2019-02-19T19:01:35.496Z,8.10
2019-02-19T19:04:08.616Z,8.10
2019-02-19T19:06:38.927Z,8.10
2019-02-19T19:09:09.033Z,8.00
2019-02-19T19:11:39.282Z,7.90
2019-02-19T19:14:09.473Z,8.00
2019-02-19T19:16:39.788Z,8.00
2019-02-19T19:19:09.824Z,8.00
2019-02-19T19:21:58.950Z,8.00
2019-02-19T19:24:29.090Z,8.00
2019-02-19T19:27:05.184Z,8.00
2019-02-19T19:29:38.933Z,8.00
2019-02-19T19:32:09.159Z,7.90
2019-02-19T19:34:39.348Z,7.90
2019-02-19T19:37:09.560Z,7.90
2019-02-19T19:39:39.673Z,7.90
2019-02-19T19:42:10.199Z,8.00
2019-02-19T19:44:43.278Z,8.10
2019-02-19T19:47:13.329Z,8.10
2019-02-19T19:49:43.482Z,8.10
2019-02-19T19:52:13.675Z,8.10
2019-02-19T19:54:46.285Z,8.10
2019-02-19T19:57:16.382Z,8.10
2019-02-19T19:59:46.463Z,8.10
2019-02-19T20:02:19.406Z,8.00
2019-02-19T20:04:48.451Z,8.00
2019-02-19T20:07:18.491Z,8.00
2019-02-19T20:09:49.225Z,7.90
2019-02-19T20:12:19.280Z,7.90
2019-02-19T20:14:49.311Z,7.90
2019-02-19T20:17:19.462Z,7.80
2019-02-19T20:19:49.673Z,7.80
2019-02-19T20:22:19.926Z,7.70
2019-02-19T20:24:50.133Z,7.70
2019-02-19T20:27:20.390Z,7.60
2019-02-19T20:29:50.586Z,7.60
2019-02-19T20:32:20.768Z,7.50
2019-02-19T20:34:53.196Z,7.50
2019-02-19T20:37:23.341Z,7.40
2019-02-19T20:39:53.562Z,7.40
2019-02-19T20:42:23.721Z,7.40
2019-02-19T20:44:53.810Z,7.30
2019-02-19T20:47:23.967Z,7.30
2019-02-19T20:49:54.111Z,7.30
2019-02-19T20:52:24.232Z,7.30
2019-02-19T20:54:54.410Z,7.20
2019-02-19T20:57:24.683Z,7.20
2019-02-19T20:59:54.909Z,7.20
2019-02-19T21:02:25.009Z,7.20
2019-02-19T21:04:55.251Z,7.20
2019-02-19T21:07:25.362Z,7.20
2019-02-19T21:09:55.583Z,7.20
2019-02-19T21:12:25.826Z,7.20
2019-02-19T21:14:56.082Z,7.40
2019-02-19T21:17:26.318Z,7.50
2019-02-19T21:19:56.467Z,7.50
2019-02-19T21:22:26.599Z,7.50
2019-02-19T21:25:00.247Z,7.40
2019-02-19T21:27:30.317Z,7.30
2019-02-19T21:30:00.376Z,7.30
2019-02-19T21:32:30.670Z,7.20
2019-02-19T21:35:01.166Z,7.20
2019-02-19T21:37:31.234Z,7.20
2019-02-19T21:40:01.393Z,7.10
2019-02-19T21:42:31.500Z,7.10
2019-02-19T21:45:01.506Z,7.00
2019-02-19T21:47:31.741Z,6.90
2019-02-19T21:50:01.803Z,6.80
2019-02-19T21:52:31.992Z,6.80
2019-02-19T21:55:02.093Z,6.60
2019-02-19T21:57:32.416Z,6.60
2019-02-19T22:00:02.539Z,6.50
2019-02-19T22:02:33.951Z,6.40
2019-02-19T22:05:04.176Z,6.40
2019-02-19T22:07:34.245Z,6.30
2019-02-19T22:10:04.520Z,6.20
2019-02-19T22:12:34.962Z,6.10
2019-02-19T22:15:05.745Z,6.00
2019-02-19T22:17:35.909Z,5.90
2019-02-19T22:20:08.942Z,5.90
2019-02-19T22:22:39.022Z,5.80
2019-02-19T22:25:09.076Z,5.80
2019-02-19T22:27:39.179Z,5.70
2019-02-19T22:30:11.601Z,5.70
2019-02-19T22:32:43.025Z,5.60
2019-02-19T22:35:13.102Z,5.60
2019-02-19T22:37:43.193Z,5.60
2019-02-19T22:40:13.283Z,5.60
2019-02-19T22:42:43.335Z,5.50
2019-02-19T22:45:13.344Z,5.50
2019-02-19T22:47:43.392Z,5.50
2019-02-19T22:50:13.406Z,5.40
2019-02-19T22:52:43.513Z,5.40
2019-02-19T22:55:24.907Z,5.40
2019-02-19T22:57:58.505Z,5.40
2019-02-19T23:00:49.566Z,5.40
2019-02-19T23:03:21.380Z,5.40
2019-02-19T23:05:51.577Z,5.30
2019-02-19T23:08:21.759Z,5.30
2019-02-19T23:10:51.978Z,5.20
2019-02-19T23:13:22.215Z,5.20
2019-02-19T23:15:52.358Z,5.10
2019-02-19T23:18:22.553Z,5.10
2019-02-19T23:20:52.624Z,5.10
2019-02-19T23:23:22.684Z,5.10
2019-02-19T23:25:52.674Z,5.00
2019-02-19T23:28:22.680Z,5.00
2019-02-19T23:30:52.722Z,5.00
2019-02-19T23:33:23.143Z,5.10
2019-02-19T23:36:01.460Z,5.10
2019-02-19T23:38:31.672Z,5.10
2019-02-19T23:41:01.687Z,5.10
2019-02-19T23:43:31.755Z,5.10
2019-02-19T23:46:01.771Z,5.10
2019-02-19T23:48:31.900Z,5.10
2019-02-19T23:51:01.938Z,5.10
2019-02-19T23:53:31.971Z,5.10
2019-02-19T23:56:01.980Z,5.10
2019-02-19T23:58:32.132Z,5.10
